createdAt,value
2022-08-22T00:01:20.222Z,82.80
2022-08-22T00:02:47.979Z,61.40
2022-08-22T00:03:01.452Z,74.20
2022-08-22T00:03:02.259Z,67.30
2022-08-22T00:04:11.268Z,83.10
2022-08-22T00:06:44.804Z,83.30
2022-08-22T00:09:24.600Z,83.20
2022-08-22T00:12:17.447Z,83.00
2022-08-22T00:14:56.509Z,83.10
2022-08-22T00:17:49.648Z,83.20
2022-08-22T00:20:41.554Z,83.60
2022-08-22T00:23:11.751Z,83.70
2022-08-22T00:25:53.438Z,83.80
2022-08-22T00:28:38.205Z,83.90
2022-08-22T00:31:32.018Z,84.10
2022-08-22T00:34:22.369Z,84.30
2022-08-22T00:37:03.700Z,84.50
2022-08-22T00:39:59.485Z,84.90
2022-08-22T00:43:03.491Z,85.30
2022-08-22T00:45:36.523Z,85.40
2022-08-22T00:48:44.559Z,85.20
2022-08-22T00:51:23.270Z,86.00
2022-08-22T00:53:57.324Z,85.90
2022-08-22T00:56:52.088Z,85.90
2022-08-22T00:59:32.135Z,86.00
2022-08-22T01:02:07.375Z,85.90
2022-08-22T01:05:09.890Z,86.30
2022-08-22T01:07:45.625Z,86.60
2022-08-22T01:10:56.129Z,86.40
2022-08-22T01:14:08.524Z,86.60
2022-08-22T01:16:44.491Z,86.70
2022-08-22T01:19:51.318Z,86.60
2022-08-22T01:22:23.953Z,87.00
2022-08-22T01:25:18.487Z,86.90
2022-08-22T01:28:20.632Z,87.10
2022-08-22T01:31:18.684Z,87.40
2022-08-22T01:34:15.971Z,87.40
2022-08-22T01:36:58.002Z,87.50
2022-08-22T01:39:44.050Z,87.30
2022-08-22T01:42:35.939Z,87.70
2022-08-22T01:45:20.984Z,87.90
2022-08-22T01:48:07.861Z,87.80
2022-08-22T01:51:03.321Z,87.90
2022-08-22T01:53:48.071Z,88.00
2022-08-22T01:56:21.214Z,88.00
2022-08-22T01:58:57.298Z,88.00
2022-08-22T02:01:39.002Z,88.00
2022-08-22T02:04:10.784Z,88.00
2022-08-22T02:06:52.792Z,88.20
2022-08-22T02:09:46.500Z,88.40
2022-08-22T02:12:25.111Z,88.50
2022-08-22T02:15:22.890Z,88.40
2022-08-22T02:18:29.655Z,88.50
2022-08-22T02:21:11.990Z,88.60
2022-08-22T02:23:52.690Z,88.60
2022-08-22T02:26:40.471Z,88.80
2022-08-22T02:29:45.187Z,89.10
2022-08-22T02:32:42.555Z,89.20
2022-08-22T02:35:46.943Z,89.30
2022-08-22T02:38:39.042Z,89.40
2022-08-22T02:41:27.481Z,89.00
2022-08-22T02:44:27.682Z,89.00
2022-08-22T02:47:15.445Z,89.10
2022-08-22T02:50:13.019Z,89.50
2022-08-22T02:53:13.632Z,89.70
2022-08-22T02:55:59.915Z,90.00
2022-08-22T02:58:29.379Z,90.00
2022-08-22T03:01:02.227Z,90.00
2022-08-22T03:03:36.168Z,90.10
2022-08-22T03:06:28.357Z,90.20
2022-08-22T03:09:13.899Z,90.20
2022-08-22T03:11:47.003Z,90.30
2022-08-22T03:14:32.174Z,90.30
2022-08-22T03:17:14.548Z,90.40
2022-08-22T03:20:22.152Z,90.40
2022-08-22T03:22:58.080Z,90.50
2022-08-22T03:25:51.192Z,90.40
2022-08-22T03:28:30.272Z,90.70
2022-08-22T03:31:16.142Z,90.50
2022-08-22T03:33:43.951Z,90.50
2022-08-22T03:36:16.686Z,90.50
2022-08-22T03:39:16.693Z,90.60
2022-08-22T03:42:20.553Z,90.70
2022-08-22T03:45:06.279Z,90.80
2022-08-22T03:47:45.262Z,90.70
2022-08-22T03:50:49.693Z,90.80
2022-08-22T03:53:39.863Z,90.90
2022-08-22T03:56:33.952Z,90.80
2022-08-22T03:59:22.923Z,90.80
2022-08-22T04:02:31.546Z,91.00
2022-08-22T04:05:28.687Z,91.00
2022-08-22T04:08:07.672Z,90.90
2022-08-22T04:11:21.506Z,91.00
2022-08-22T04:14:26.854Z,91.10
2022-08-22T04:17:11.708Z,91.10
2022-08-22T04:20:06.671Z,91.10
2022-08-22T04:23:05.276Z,91.20
2022-08-22T04:25:40.428Z,91.30
2022-08-22T04:29:14.098Z,91.20
2022-08-22T04:31:52.502Z,91.40
2022-08-22T04:34:31.998Z,91.50
2022-08-22T04:37:05.475Z,91.60
2022-08-22T04:39:47.198Z,91.50
2022-08-22T04:42:33.139Z,91.70
2022-08-22T04:45:06.678Z,91.70
2022-08-22T04:47:47.211Z,91.70
2022-08-22T04:50:56.031Z,91.80
2022-08-22T04:53:41.473Z,91.90
2022-08-22T04:56:19.578Z,91.80
2022-08-22T04:59:00.476Z,91.80
2022-08-22T05:01:39.067Z,92.00
2022-08-22T05:04:13.126Z,92.00
2022-08-22T05:06:46.078Z,92.00
2022-08-22T05:09:18.925Z,91.90
2022-08-22T05:11:50.371Z,92.00
2022-08-22T05:14:32.629Z,92.00
2022-08-22T05:17:00.373Z,92.10
2022-08-22T05:19:37.335Z,92.10
2022-08-22T05:22:14.017Z,92.20
2022-08-22T05:24:46.444Z,92.30
2022-08-22T05:27:24.227Z,92.40
2022-08-22T05:30:00.747Z,92.50
2022-08-22T05:32:32.596Z,92.60
2022-08-22T05:35:03.058Z,92.70
2022-08-22T05:37:55.260Z,92.70
2022-08-22T05:40:29.221Z,92.80
2022-08-22T05:42:58.115Z,92.80
2022-08-22T05:45:27.297Z,92.80
2022-08-22T05:48:16.304Z,92.80
2022-08-22T05:50:55.705Z,93.00
2022-08-22T05:53:42.395Z,92.70
2022-08-22T05:56:23.261Z,92.70
2022-08-22T05:59:08.427Z,92.70
2022-08-22T06:02:08.099Z,92.70
2022-08-22T06:04:37.961Z,92.60
2022-08-22T06:07:33.762Z,92.60
2022-08-22T06:10:15.470Z,92.60
2022-08-22T06:12:57.944Z,92.60
2022-08-22T06:15:34.541Z,92.60
2022-08-22T06:18:17.055Z,92.50
2022-08-22T06:20:49.514Z,92.50
2022-08-22T06:23:25.110Z,92.50
2022-08-22T06:25:54.261Z,92.50
2022-08-22T06:28:26.634Z,92.40
2022-08-22T06:30:56.134Z,92.30
2022-08-22T06:33:27.610Z,92.50
2022-08-22T06:36:29.208Z,92.20
2022-08-22T06:39:01.245Z,92.00
2022-08-22T06:41:33.095Z,91.80
2022-08-22T06:44:01.988Z,91.70
2022-08-22T06:46:31.751Z,91.50
2022-08-22T06:49:00.963Z,91.70
2022-08-22T06:51:29.327Z,91.30
2022-08-22T06:54:03.846Z,91.10
2022-08-22T06:56:38.792Z,91.00
2022-08-22T06:59:10.900Z,90.70
2022-08-22T07:01:59.083Z,90.50
2022-08-22T07:04:27.263Z,90.30
2022-08-22T07:06:56.331Z,90.10
2022-08-22T07:09:31.565Z,89.90
2022-08-22T07:12:03.027Z,89.50
2022-08-22T07:14:41.788Z,89.20
2022-08-22T07:17:18.063Z,88.60
2022-08-22T07:20:15.391Z,88.30
2022-08-22T07:23:05.750Z,87.90
2022-08-22T07:25:48.885Z,87.20
2022-08-22T07:28:51.441Z,86.40
2022-08-22T07:31:28.062Z,85.40
2022-08-22T07:34:19.012Z,84.30
2022-08-22T07:37:06.742Z,83.60
2022-08-22T07:40:19.228Z,81.80
2022-08-22T07:43:04.643Z,80.70
2022-08-22T07:45:39.821Z,79.60
2022-08-22T07:48:30.279Z,79.00
2022-08-22T07:51:13.629Z,78.30
2022-08-22T07:54:04.619Z,77.20
2022-08-22T07:56:37.597Z,76.40
2022-08-22T07:59:14.412Z,75.40
2022-08-22T08:01:53.549Z,74.40
2022-08-22T08:04:28.830Z,73.30
2022-08-22T08:06:58.750Z,72.60
2022-08-22T08:09:32.972Z,71.10
2022-08-22T08:12:02.466Z,70.90
2022-08-22T08:14:30.851Z,70.40
2022-08-22T08:17:32.038Z,70.00
2022-08-22T08:20:05.616Z,69.30
2022-08-22T08:22:33.843Z,68.60
2022-08-22T08:25:02.532Z,68.50
2022-08-22T08:27:52.840Z,67.60
2022-08-22T08:30:39.187Z,66.90
2022-08-22T08:33:25.501Z,66.60
2022-08-22T08:36:04.239Z,66.20
2022-08-22T08:39:10.153Z,65.70
2022-08-22T08:41:49.008Z,65.50
2022-08-22T08:44:49.611Z,64.90
2022-08-22T08:47:43.523Z,64.90
2022-08-22T08:50:32.118Z,64.50
2022-08-22T08:53:27.550Z,64.30
2022-08-22T08:56:26.543Z,64.20
2022-08-22T08:59:02.135Z,63.90
2022-08-22T09:01:38.658Z,63.70
2022-08-22T09:04:21.503Z,63.30
2022-08-22T09:07:09.639Z,62.70
2022-08-22T09:09:56.497Z,61.80
2022-08-22T09:12:52.218Z,61.60
2022-08-22T09:15:59.667Z,61.50
2022-08-22T09:19:05.135Z,60.90
2022-08-22T09:21:35.219Z,60.60
2022-08-22T09:24:18.571Z,60.60
2022-08-22T09:26:51.040Z,60.70
2022-08-22T09:29:54.864Z,60.70
2022-08-22T09:32:55.191Z,60.70
2022-08-22T09:35:25.720Z,60.80
2022-08-22T09:38:09.046Z,60.70
2022-08-22T09:40:47.963Z,60.70
2022-08-22T09:43:25.657Z,60.20
2022-08-22T09:46:17.133Z,59.80
2022-08-22T09:49:05.447Z,59.40
2022-08-22T09:52:09.850Z,58.90
2022-08-22T09:54:51.077Z,58.80
2022-08-22T09:57:46.674Z,58.60
2022-08-22T10:00:44.028Z,58.00
2022-08-22T10:03:33.165Z,57.50
2022-08-22T10:06:14.331Z,56.50
2022-08-22T10:09:08.936Z,55.90
2022-08-22T10:11:42.162Z,55.30
2022-08-22T10:14:22.312Z,55.20
2022-08-22T10:17:21.952Z,54.40
2022-08-22T10:20:03.259Z,54.00
2022-08-22T10:22:44.483Z,54.00
2022-08-22T10:25:42.333Z,54.10
2022-08-22T10:28:21.968Z,53.70
2022-08-22T10:31:02.089Z,54.10
2022-08-22T10:33:38.382Z,54.50
2022-08-22T10:36:11.944Z,54.50
2022-08-22T10:38:46.823Z,54.20
2022-08-22T10:41:30.474Z,53.80
2022-08-22T10:44:21.948Z,53.60
2022-08-22T10:46:57.967Z,53.20
2022-08-22T10:49:38.379Z,53.10
2022-08-22T10:52:15.488Z,52.80
2022-08-22T10:55:05.734Z,53.00
2022-08-22T10:57:57.060Z,53.20
2022-08-22T11:00:46.401Z,53.60
2022-08-22T11:03:24.939Z,53.60
2022-08-22T11:06:00.419Z,53.70
2022-08-22T11:09:00.794Z,53.90
2022-08-22T11:11:36.479Z,53.70
2022-08-22T11:14:12.043Z,53.50
2022-08-22T11:16:55.279Z,53.30
2022-08-22T11:20:19.902Z,53.10
2022-08-22T11:23:17.835Z,52.90
2022-08-22T11:25:56.322Z,52.70
2022-08-22T11:28:44.620Z,52.90
2022-08-22T11:31:36.595Z,53.10
2022-08-22T11:34:23.303Z,53.30
2022-08-22T11:37:11.724Z,53.70
2022-08-22T11:40:08.678Z,54.20
2022-08-22T11:43:03.163Z,54.70
2022-08-22T11:45:40.820Z,55.10
2022-08-22T11:48:16.207Z,55.50
2022-08-22T11:50:48.390Z,55.60
2022-08-22T11:53:27.454Z,55.90
2022-08-22T11:55:59.615Z,56.20
2022-08-22T11:58:41.411Z,56.70
2022-08-22T12:01:34.357Z,57.30
2022-08-22T12:04:28.576Z,58.10
2022-08-22T12:10:20.385Z,60.00
2022-08-22T12:13:12.065Z,60.60
2022-08-22T12:16:13.185Z,60.70
2022-08-22T12:18:53.016Z,60.70
2022-08-22T12:21:29.049Z,60.60
2022-08-22T12:24:20.817Z,60.60
2022-08-22T12:26:58.036Z,60.70
2022-08-22T12:29:44.790Z,60.60
2022-08-22T12:32:35.972Z,60.50
2022-08-22T12:35:40.332Z,60.40
2022-08-22T12:38:26.497Z,60.30
2022-08-22T12:41:34.960Z,60.30
2022-08-22T12:44:17.364Z,60.50
2022-08-22T12:47:11.846Z,60.50
2022-08-22T12:50:16.750Z,60.60
2022-08-22T12:53:09.540Z,60.60
2022-08-22T12:55:37.380Z,60.30
2022-08-22T12:58:31.697Z,59.20
2022-08-22T13:01:07.413Z,58.00
2022-08-22T13:03:50.563Z,57.40
2022-08-22T13:06:35.853Z,56.50
2022-08-22T13:09:19.915Z,54.90
2022-08-22T13:12:02.405Z,53.50
2022-08-22T13:14:33.982Z,52.30
2022-08-22T13:17:10.154Z,51.70
2022-08-22T13:19:54.834Z,51.10
2022-08-22T13:22:27.376Z,51.30
2022-08-22T13:25:04.905Z,51.60
2022-08-22T13:27:50.931Z,52.00
2022-08-22T13:30:37.824Z,52.50
2022-08-22T13:33:10.935Z,53.20
2022-08-22T13:35:54.092Z,53.60
2022-08-22T13:38:26.439Z,54.50
2022-08-22T13:40:56.814Z,55.00
2022-08-22T13:43:30.722Z,55.40
2022-08-22T13:46:02.430Z,55.80
2022-08-22T13:48:55.719Z,56.10
2022-08-22T13:51:40.348Z,56.30
2022-08-22T13:54:12.070Z,56.50
2022-08-22T13:56:46.096Z,56.80
2022-08-22T13:59:51.070Z,57.00
2022-08-22T14:02:32.344Z,57.40
2022-08-22T14:05:06.854Z,57.60
2022-08-22T14:07:38.738Z,57.80
2022-08-22T14:10:18.151Z,58.00
2022-08-22T14:13:26.772Z,58.20
2022-08-22T14:16:03.414Z,58.60
2022-08-22T14:18:45.712Z,58.50
2022-08-22T14:21:19.168Z,58.70
2022-08-22T14:23:50.322Z,58.60
2022-08-22T14:26:33.154Z,58.40
2022-08-22T14:29:11.656Z,58.40
2022-08-22T14:31:38.746Z,58.30
2022-08-22T14:34:12.261Z,58.40
2022-08-22T14:36:53.277Z,58.60
2022-08-22T14:39:31.169Z,58.70
2022-08-22T14:42:13.258Z,59.10
2022-08-22T14:44:59.095Z,59.40
2022-08-22T14:47:55.435Z,59.70
2022-08-22T14:50:35.933Z,59.80
2022-08-22T14:53:09.027Z,59.80
2022-08-22T14:55:40.694Z,59.20
2022-08-22T14:58:27.566Z,58.80
2022-08-22T15:00:56.474Z,58.30
2022-08-22T15:03:37.415Z,57.40
2022-08-22T15:06:14.485Z,56.80
2022-08-22T15:08:50.265Z,56.40
2022-08-22T15:11:21.197Z,55.80
2022-08-22T15:14:00.064Z,55.70
2022-08-22T15:16:43.440Z,55.60
2022-08-22T15:19:42.449Z,56.00
2022-08-22T15:22:25.802Z,56.20
2022-08-22T15:25:00.144Z,56.30
2022-08-22T15:27:29.951Z,56.60
2022-08-22T15:30:02.669Z,56.70
2022-08-22T15:32:34.978Z,57.00
2022-08-22T15:35:27.990Z,57.20
2022-08-22T15:38:28.751Z,57.50
2022-08-22T15:41:03.336Z,58.00
2022-08-22T15:43:44.872Z,58.00
2022-08-22T15:46:22.891Z,58.10
2022-08-22T15:49:10.593Z,58.20
2022-08-22T15:51:43.218Z,58.30
2022-08-22T15:54:25.485Z,58.10
2022-08-22T15:56:56.172Z,58.10
2022-08-22T15:59:23.312Z,58.10
2022-08-22T16:01:54.225Z,58.00
2022-08-22T16:04:44.764Z,58.00
2022-08-22T16:07:41.793Z,58.10
2022-08-22T16:10:27.339Z,58.10
2022-08-22T16:13:15.482Z,58.00
2022-08-22T16:15:52.665Z,58.10
2022-08-22T16:18:39.417Z,58.10
2022-08-22T16:21:13.311Z,58.30
2022-08-22T16:23:58.391Z,58.30
2022-08-22T16:26:31.364Z,58.50
2022-08-22T16:29:14.742Z,58.50
2022-08-22T16:31:48.142Z,58.50
2022-08-22T16:34:18.094Z,58.40
2022-08-22T16:37:03.625Z,58.40
2022-08-22T16:39:49.635Z,58.50
2022-08-22T16:42:25.471Z,58.40
2022-08-22T16:45:10.628Z,58.30
2022-08-22T16:47:58.164Z,58.50
2022-08-22T16:50:37.783Z,58.50
2022-08-22T16:53:27.549Z,58.70
2022-08-22T16:56:17.122Z,58.90
2022-08-22T16:58:57.833Z,59.20
2022-08-22T17:01:36.539Z,59.40
2022-08-22T17:04:48.076Z,59.60
2022-08-22T17:07:30.034Z,59.90
2022-08-22T17:10:17.610Z,60.10
2022-08-22T17:13:08.105Z,60.60
2022-08-22T17:15:59.145Z,61.00
2022-08-22T17:18:45.573Z,61.30
2022-08-22T17:21:51.004Z,61.60
2022-08-22T17:24:45.528Z,61.90
2022-08-22T17:27:59.685Z,62.20
2022-08-22T17:30:45.251Z,62.30
2022-08-22T17:33:30.694Z,62.30
2022-08-22T17:39:33.119Z,62.60
2022-08-22T17:42:35.597Z,62.80
2022-08-22T17:48:48.022Z,63.10
2022-08-22T17:51:32.377Z,63.40
2022-08-22T17:54:41.177Z,63.60
2022-08-22T17:57:24.731Z,64.00
2022-08-22T18:00:50.719Z,64.10
2022-08-22T18:03:33.434Z,64.40
2022-08-22T18:06:24.246Z,64.50
2022-08-22T18:11:45.574Z,64.90
2022-08-22T18:14:29.946Z,65.20
2022-08-22T18:16:59.344Z,65.40
2022-08-22T18:20:05.289Z,65.60
2022-08-22T18:22:41.524Z,66.00
2022-08-22T18:25:19.886Z,66.20
2022-08-22T18:28:01.184Z,66.60
2022-08-22T18:30:34.423Z,66.90
2022-08-22T18:33:41.540Z,67.20
2022-08-22T18:36:28.353Z,67.60
2022-08-22T18:39:19.390Z,68.00
2022-08-22T18:41:56.853Z,68.50
2022-08-22T18:44:31.119Z,68.70
2022-08-22T18:47:18.947Z,69.10
2022-08-22T18:49:54.534Z,69.50
2022-08-22T18:52:34.399Z,70.00
2022-08-22T18:55:27.317Z,71.00
2022-08-22T18:58:06.592Z,71.70
2022-08-22T19:01:04.825Z,72.40
2022-08-22T19:03:55.706Z,73.40
2022-08-22T19:06:37.918Z,74.00
2022-08-22T19:09:47.711Z,74.90
2022-08-22T19:12:26.447Z,75.70
2022-08-22T19:15:21.413Z,76.30
2022-08-22T19:18:09.432Z,77.50
2022-08-22T19:20:58.402Z,78.50
2022-08-22T19:23:35.878Z,79.30
2022-08-22T19:26:23.347Z,80.50
2022-08-22T19:28:58.844Z,81.60
2022-08-22T19:31:45.498Z,82.20
2022-08-22T19:34:22.075Z,83.30
2022-08-22T19:37:31.921Z,84.10
2022-08-22T19:40:02.362Z,85.20
2022-08-22T19:42:35.723Z,85.80
2022-08-22T19:45:18.555Z,86.70
2022-08-22T19:47:56.707Z,87.70
2022-08-22T19:50:25.840Z,88.30
2022-08-22T19:52:55.808Z,88.80
2022-08-22T19:55:31.093Z,89.60
2022-08-22T19:58:32.928Z,90.10
2022-08-22T20:01:18.926Z,90.60
2022-08-22T20:04:00.928Z,90.80
2022-08-22T20:06:47.812Z,91.30
2022-08-22T20:09:28.940Z,91.50
2022-08-22T20:12:15.698Z,91.80
2022-08-22T20:14:45.380Z,92.10
2022-08-22T20:17:26.687Z,92.30
2022-08-22T20:20:24.495Z,92.50
2022-08-22T20:23:23.016Z,92.90
2022-08-22T20:25:52.945Z,93.00
2022-08-22T20:28:46.968Z,93.20
2022-08-22T20:31:24.296Z,93.40
2022-08-22T20:34:13.743Z,93.70
2022-08-22T20:36:45.026Z,94.00
2022-08-22T20:39:23.375Z,94.10
2022-08-22T20:41:56.229Z,94.30
2022-08-22T20:44:27.363Z,94.50
2022-08-22T20:47:04.401Z,94.70
2022-08-22T20:49:46.918Z,95.00
2022-08-22T20:52:35.939Z,95.20
2022-08-22T20:55:08.284Z,95.40
2022-08-22T20:57:43.628Z,95.50
2022-08-22T21:00:14.644Z,96.30
2022-08-22T21:02:53.834Z,97.40
2022-08-22T21:05:24.389Z,98.60
2022-08-22T21:08:28.932Z,99.60
2022-08-22T21:11:18.650Z,99.90
2022-08-22T21:13:46.341Z,99.90
2022-08-22T21:16:17.808Z,99.90
2022-08-22T21:18:52.528Z,99.90
2022-08-22T21:21:22.327Z,99.90
2022-08-22T21:24:00.041Z,99.90
2022-08-22T21:26:30.032Z,99.90
2022-08-22T21:29:13.278Z,99.90
2022-08-22T21:32:11.288Z,99.90
2022-08-22T21:34:45.676Z,99.90
2022-08-22T21:37:37.192Z,99.90
2022-08-22T21:40:24.563Z,99.90
2022-08-22T21:43:01.742Z,99.90
2022-08-22T21:45:37.688Z,99.90
2022-08-22T21:48:28.622Z,99.90
2022-08-22T21:50:55.624Z,99.90
2022-08-22T21:53:27.802Z,99.90
2022-08-22T21:56:13.098Z,99.90
2022-08-22T21:58:41.711Z,99.90
2022-08-22T22:01:31.951Z,99.90
2022-08-22T22:03:59.856Z,99.90
2022-08-22T22:06:35.455Z,99.90
2022-08-22T22:09:04.172Z,99.90
2022-08-22T22:11:33.878Z,99.90
2022-08-22T22:14:03.503Z,99.90
2022-08-22T22:16:31.636Z,99.90
2022-08-22T22:19:19.107Z,99.90
2022-08-22T22:21:56.360Z,99.90
2022-08-22T22:24:24.763Z,99.90
2022-08-22T22:26:56.371Z,99.90
2022-08-22T22:29:25.820Z,99.90
2022-08-22T22:32:00.431Z,99.90
2022-08-22T22:34:30.447Z,99.90
2022-08-22T22:36:58.582Z,99.90
2022-08-22T22:39:34.204Z,99.90
2022-08-22T22:42:05.117Z,99.90
2022-08-22T22:44:38.234Z,99.90
2022-08-22T22:47:18.941Z,99.90
2022-08-22T22:49:59.160Z,99.90
2022-08-22T22:52:48.646Z,99.90
2022-08-22T22:55:25.626Z,99.90
2022-08-22T22:58:02.517Z,99.90
2022-08-22T23:00:35.317Z,99.90
2022-08-22T23:03:04.945Z,99.90
2022-08-22T23:05:45.431Z,99.90
2022-08-22T23:08:21.290Z,99.90
2022-08-22T23:10:53.328Z,99.90
2022-08-22T23:13:25.572Z,99.90
2022-08-22T23:15:55.763Z,99.90
2022-08-22T23:18:32.781Z,99.90
2022-08-22T23:21:15.553Z,99.90
2022-08-22T23:23:48.496Z,99.90
2022-08-22T23:26:16.707Z,99.90
2022-08-22T23:28:47.785Z,99.90
2022-08-22T23:31:26.614Z,99.90
2022-08-22T23:33:53.979Z,99.90
2022-08-22T23:36:24.201Z,99.90
2022-08-22T23:39:11.685Z,99.90
2022-08-22T23:41:39.497Z,99.90
2022-08-22T23:44:15.077Z,99.90
2022-08-22T23:46:48.150Z,99.90
2022-08-22T23:49:21.365Z,99.90
2022-08-22T23:51:51.839Z,99.90
2022-08-22T23:54:24.455Z,99.90
2022-08-22T23:57:02.353Z,99.90
2022-08-22T23:59:33.556Z,99.90
